ETEB 170556Z AUTO 00000KT 8000 BR OVC048 11/11 A3004 RMK AO2 SLP186 T01130105 10116 20101 53001 $ EDMA 170550Z 00000KT 8000 NSC 11/11 Q1018 ETIK 170556Z AUTO 00000KT 6000 BR FEW050 10/10 A3006 RMK AO2 SLP183 T01010099 10129 20098 53002 $ LSZB 170550Z 30004KT 2500 VCFG BKN003 13/13 Q1016 NOSIG LIPB 170550Z VRB01KT 9999 SCT020 18/18 Q1012 EDVE 170550Z 29008KT 9999 FEW010 OVC033 14/12 Q1014 EDDW 170550Z 28005KT 9999 SCT028 13/12 Q1015 NOSIG LFMD 170600Z AUTO VRB02KT CAVOK 17/16 Q1011 NOSIG EDLW 170550Z 21005KT 5000 BR FEW008 14/13 Q1016 EDDC 170550Z 28008KT 250V310 9999 -RA SCT012 BKN017 14/12 Q1014 TEMPO BKN014 EDDL 170550Z VRB02KT 9000 NSC 14/13 Q1016 NOSIG EDDE 170550Z 27010KT 9999 -RA BKN030 12/11 Q1016 NOSIG LIRQ 170550Z 12004KT 9999 BKN030 20/19 Q1012 EDDF 170550Z 20003KT 180V240 9999 FEW037 12/11 Q1017 NOSIG EDNY 170550Z 05004KT 9999 OVC049 14/12 Q1017 ETHF 170520Z 14001KT 9999 SCT040 BKN052 12/11 Q1016 BLU BLU LIMJ 170550Z 02005KT 9999 FEW020TCU 22/20 Q1010 ETIC 170556Z AUTO 00000KT 9999 OVC048 12/11 A3000 RMK AO2 SLP157 T01190111 10119 20080 53001 $ LOWG 170550Z 03005KT 9999 -SHRA FEW004 17/16 Q1012 NOSIG EDDH 170550Z 30010KT 9999 FEW023 BKN030 14/10 Q1013 NOSIG EDDV 170550Z 27007KT 240V300 9999 FEW007 SCT030 14/13 Q1015 TEMPO BKN007 EDQM 170550Z 28007KT 9999 SCT044 11/09 Q1016 ETIH 170556Z AUTO 00000KT 9999 OVC046 11/10 A3003 RMK AO2 SLP168 T01090100 10109 20083 53002 $ ETSI 170520Z 25002KT 9999 BKN050 11/10 Q1017 BLU BLU LOWI 170550Z VRB01KT 9999 FEW007 SCT010 BKN013 14/12 Q1017 TEMPO BKN015 EDVK 170550Z 32003KT 290V010 9999 FEW012 SCT046 13/12 Q1016 EDHK 170550Z AUTO 31008KT 9999 // BKN019/// OVC023/// 11/// Q1013 LOWK 170550Z 00000KT 9999 -SHRA FEW001 SCT013 BKN035 17/16 Q1013 RESHRA TEMPO SHRA EDDK 170550Z VRB02KT CAVOK 13/12 Q1017 NOSIG EDDP 170550Z 27010KT 9999 FEW012 BKN016 BKN040 14/12 Q1014 TEMPO BKN014 LOWL 170550Z 26010KT 9999 FEW014 14/12 Q1016 NOSIG LSZA 170550Z 34001KT 0700 FG VV002 15/15 Q1012 BECMG CAVOK EDHL 170550Z 24006KT 210V340 9999 SCT012 BKN017 13/11 Q1013 LIML 170550Z 30002KT 3000 BR SCT008 BKN015 19/18 Q1011 NOSIG LFML 170600Z AUTO 31006KT 9999 FEW014 19/17 Q1013 TEMPO BKN014 LFMT 170600Z AUTO 00000KT CAVOK 17/17 Q1014 NOSIG EDLN 170550Z VRB01KT 7000 FEW038 14/13 Q1016 EDDM 170550Z 26004KT 9999 FEW030 BKN045 12/11 Q1017 NOSIG EDDG 170550Z VRB01KT 3000 BR SCT003 12/12 Q1016 BECMG 5000 ETSN 170520Z VRB02KT 8000 BKN050 10/09 Q1017 BLACKBLU ETHN 170520Z 25002KT 9999 BKN044 11/11 Q1017 BLU BLU LFMN 170600Z 36007KT CAVOK 20/15 Q1011 NOSIG EDDN 170550Z VRB01KT 9999 FEW005 BKN047 09/09 Q1017 NOSIG EDMO 170550Z 22003KT 9999 BKN040 12/11 Q1018 EDLP 170550Z 25003KT 200V290 6000 BKN013 BKN020 13/12 Q1016 LIPR 170550Z AUTO 28003KT 240V310 9999 BKN057/// 21/18 Q1010 EDDR 170550Z VRB01KT CAVOK 10/10 Q1017 NOSIG LOWS 170550Z 36005KT 9999 FEW008 SCT024 BKN036 13/12 Q1017 NOSIG LSGS 170550Z 00000KT 9999 SCT025 SCT040 17/14 Q1016 EDDS 170550Z VRB02KT 9999 FEW027 BKN049 12/12 Q1018 NOSIG LFTH 170600Z AUTO 30003KT CAVOK 18/17 Q1012 NOSIG LIMF 170550Z VRB04KT 8000 NSC 15/15 Q1012 LIPI 170455Z 16001KT 9999 -RA FEW010 SCT030 BKN100 19/15 Q1010 RMK OVC VIS MIN 9999 WIND THR06 12002KT WIND THR24 18001KT BLU LIPZ 170550Z 02006KT 9000 -RA FEW010 BKN070 18/17 Q1010 NOSIG LIPX 170550Z 23004KT 4000 BR FEW004 SCT070 17/17 Q1010 EDXW 170550Z AUTO 02009KT 9999 // FEW018/// BKN041/// 13/10 Q1014 LOWW 170550Z 31012KT 9999 FEW018 BKN040 15/13 Q1013 NOSIG LSZH 170550Z 30003KT 9999 BKN051 13/12 Q1017 NOSIG

METAR Messwerte

Klicken Sie auf einen Ort, um die 36h-Historie abzurufen

Ort
m ü. NN
Zeit Temperatur Taupunkt Rel.
Luftfeuchte
Luftdruck:
Altimeter
NN
Station
Wind in Beaufort
(Knoten)
Sichtweite
(Meter)
Wolken
(Meter über Grund)
Wettererscheinung
Ansbach
467
Fr 17.09. 07:561111100 %1017
1018
962
Windstill8000Bedeckt (1500)Nebeldunst
Augsburg
463
Fr 17.09. 07:501111100 %1018
1019
963
Windstill8000Nicht signifikant 
Bad Windsheim / Illesheim
325
Fr 17.09. 07:561010100 %1018
1019
979
Windstill6000Leicht bewölkt (1500)Nebeldunst
Bern/Belp
505
Fr 17.09. 07:501313100 %1016
1016
957
WNW 2 (4)2500Stark bewölkt (91)Nebel
Bozen
241
Fr 17.09. 07:501818100 %1012
1012
983
Uml 1 (1)>= 10000Wolkig (610) 
Braunschweig
88
Fr 17.09. 07:50141288 %1014
1014
1003
WNW 3 (8)>= 10000Bedeckt (1000)
Leicht bewölkt (300)
 
Bremen
5
Fr 17.09. 07:50131294 %1015
1015
1014
W 2 (5)>= 10000Wolkig (850) 
Cannes
9
Fr 17.09. 08:00171694 %1011
1011
1010
Uml 1 (2)>= 10000Nicht signifikant 
Dortmund/Wickede
127
Fr 17.09. 07:50141394 %1016
1016
1001
SSW 2 (5)5000Leicht bewölkt (240)Nebeldunst
Dresden-Klotzsche
226
Fr 17.09. 07:50141288 %1014
1014
987
W 3 (8)
WSW - NW
>= 10000Stark bewölkt (520)
Wolkig (370)
Regen (schwach)
Düsseldorf
44
Fr 17.09. 07:50141394 %1016
1016
1011
Uml 1 (2)9000Nicht signifikant 
Erfurt-Bindersleben
323
Fr 17.09. 07:50121194 %1016
1016
978
W 3 (10)>= 10000Stark bewölkt (910)Regen (schwach)
Florenz
38
Fr 17.09. 07:50201994 %1012
1012
1007
OSO 2 (4)>= 10000Stark bewölkt (910) 
Frankfurt
113
Fr 17.09. 07:50121194 %1017
1017
1003
SSW 2 (3)
S - WSW
>= 10000Leicht bewölkt (1100) 
Friedrichshafen
424
Fr 17.09. 07:50141288 %1017
1017
967
NO 2 (4)>= 10000Bedeckt (1500) 
Fritzlar
181
Fr 17.09. 07:20121194 %1016
1016
994
SO 1 (1)>= 10000Stark bewölkt (1600)
Wolkig (1200)
 
Genua
3
Fr 17.09. 07:50222088 %1010
1010
1010
NNO 2 (5)>= 10000Leicht bewölkt (610) 
Grafenwöhr
415
Fr 17.09. 07:56121194 %1016
1017
967
Windstill>= 10000Bedeckt (1500) 
Graz-Thalerhof
347
Fr 17.09. 07:50171694 %1012
1012
971
NNO 2 (5)>= 10000Leicht bewölkt (120)Regen-Schauer (schwach)
Hamburg-Fuhlsbüttel
16
Fr 17.09. 07:50141077 %1013
1013
1011
WNW 3 (10)>= 10000Stark bewölkt (910)
Leicht bewölkt (700)
 
Hannover
54
Fr 17.09. 07:50141394 %1015
1015
1009
W 3 (7)
WSW - WNW
>= 10000Wolkig (910)
Leicht bewölkt (210)
 
Hof
568
Fr 17.09. 07:5011987 %1016
1017
949
W 3 (7)>= 10000Wolkig (1300) 
Hohenfels
442
Fr 17.09. 07:56111094 %1017
1018
965
Windstill>= 10000Bedeckt (1400) 
Ingolstadt
370
Fr 17.09. 07:20111094 %1017
1018
973
WSW 1 (2)>= 10000Stark bewölkt (1500) 
Innsbruck
581
Fr 17.09. 07:50141288 %1017
1017
949
Uml 1 (1)>= 10000Stark bewölkt (400)
Wolkig (300)
Leicht bewölkt (210)
 
Kassel/Calden
285
Fr 17.09. 07:50131294 %1016
1016
982
NW 2 (3)
WNW - N
>= 10000Wolkig (1400)
Leicht bewölkt (370)
 
Kiel
31
Fr 17.09. 07:50    %1013
 
 
NW 3 (8)>= 10000Bedeckt (700)
Stark bewölkt (580)
 
Klagenfurt
441
Fr 17.09. 07:50171694 %1013
1013
961
Windstill>= 10000Stark bewölkt (1100)
Wolkig (400)
Leicht bewölkt (30)
Regen-Schauer (schwach)
Bald möglich: Regen-Schauer
Köln/Bonn
99
Fr 17.09. 07:50131294 %1017
1017
1005
Uml 1 (2)>= 10000Nicht signifikant 
Leipzig-Schkeuditz
149
Fr 17.09. 07:50141288 %1014
1014
996
W 3 (10)>= 10000Stark bewölkt (1200)
Stark bewölkt (490)
Leicht bewölkt (370)
 
Linz/Hörsching
313
Fr 17.09. 07:50141288 %1016
1016
979
W 3 (10)>= 10000Leicht bewölkt (430) 
Lugano
276
Fr 17.09. 07:501515100 %1012
1012
979
NNW 1 (1)700 Nebel
Lübeck-Blankensee
16
Fr 17.09. 07:50131188 %1013
1013
1011
WSW 2 (6)
SSW - NNW
>= 10000Stark bewölkt (520)
Wolkig (370)
 
Mailand
103
Fr 17.09. 07:50191894 %1011
1011
999
WNW 1 (2)3000Stark bewölkt (460)
Wolkig (240)
Nebeldunst
Marseille/Marignane
36
Fr 17.09. 08:00191788 %1013
1013
1009
NW 2 (6)>= 10000Leicht bewölkt (430) 
Montpellier
6
Fr 17.09. 08:001717100 %1014
1014
1013
Windstill>= 10000Nicht signifikant 
Mönchengladbach
38
Fr 17.09. 07:50141394 %1016
1016
1011
Uml 1 (1)7000Leicht bewölkt (1200) 
München
447
Fr 17.09. 07:50121194 %1017
1018
964
W 2 (4)>= 10000Stark bewölkt (1400)
Leicht bewölkt (910)
 
Münster/Osnabrück
52
Fr 17.09. 07:501212100 %1016
1016
1010
Uml 1 (1)3000Wolkig (91)Nebeldunst
Neuburg/Donau
387
Fr 17.09. 07:2010993 %1017
1018
971
Uml 1 (2)8000Stark bewölkt (1500) 
Niederstetten
473
Fr 17.09. 07:201111100 %1017
1018
961
WSW 1 (2)>= 10000Stark bewölkt (1300) 
Nizza
10
Fr 17.09. 08:00201573 %1011
1011
1010
N 3 (7)>= 10000Nicht signifikant 
Nürnberg
312
Fr 17.09. 07:5099100 %1017
1018
980
Uml 1 (1)>= 10000Stark bewölkt (1400)
Leicht bewölkt (150)
 
Oberpfaffenhofen
600
Fr 17.09. 07:50121194 %1018
1019
948
SW 2 (3)>= 10000Stark bewölkt (1200) 
Paderborn/Lippstadt
213
Fr 17.09. 07:50131294 %1016
1016
991
WSW 2 (3)
SSW - WNW
6000Stark bewölkt (610)
Stark bewölkt (400)
 
Rimini
13
Fr 17.09. 07:50211883 %1010
1010
1008
W 2 (3)
WSW - NW
>= 10000Stark bewölkt (1700) 
Saarbrücken/Ensheim
320
Fr 17.09. 07:501010100 %1017
1018
979
Uml 1 (1)>= 10000Nicht signifikant 
Salzburg
450
Fr 17.09. 07:50131294 %1017
1017
964
N 2 (5)>= 10000Stark bewölkt (1100)
Wolkig (730)
Leicht bewölkt (240)
 
Sion
481
Fr 17.09. 07:50171482 %1016
1016
959
Windstill>= 10000Wolkig (1200)
Wolkig (760)
 
Stuttgart
419
Fr 17.09. 07:501212100 %1018
1019
968
Uml 1 (2)>= 10000Stark bewölkt (1500)
Leicht bewölkt (820)
 
Toulon
4
Fr 17.09. 08:00181794 %1012
1012
1012
WNW 2 (3)>= 10000Nicht signifikant 
Turin
287
Fr 17.09. 07:501515100 %1012
1012
978
Uml 2 (4)8000Nicht signifikant 
Udine/Rivolto
53
Fr 17.09. 06:55191578 %1010
1010
1004
SSO 1 (1)>= 10000Stark bewölkt (3000)
Wolkig (910)
Leicht bewölkt (300)
Regen (schwach)
Venedig
6
Fr 17.09. 07:50181794 %1010
1010
1009
NNO 2 (6)9000Stark bewölkt (2100)
Leicht bewölkt (300)
Regen (schwach)
Verona/Villafranca
68
Fr 17.09. 07:501717100 %1010
1010
1002
SW 2 (4)4000Wolkig (2100)
Leicht bewölkt (120)
Nebeldunst
Westerland/Sylt
20
Fr 17.09. 07:50131082 %1014
1014
1012
NNO 3 (9)>= 10000Stark bewölkt (1200)
Leicht bewölkt (550)
 
Wien/Schwechat
190
Fr 17.09. 07:50151388 %1013
1013
990
NW 4 (12)>= 10000Stark bewölkt (1200)
Leicht bewölkt (550)
 
Zürich-Kloten
432
Fr 17.09. 07:50131294 %1017
1017
966
WNW 2 (3)>= 10000Stark bewölkt (1600) 

Altimeter: Einstellung am Altimeter (Höhenmesser), die Höhe 0 muss auf diesen Luftdruckwert zeigen, damit das Gerät die Stationshöhe richtig anzeigt.

NN: Luftdruck reduziert auf "Normal Null", auf Meereshöhe, dieser von der Temperatur abhängige Wert wird bisweilen unkorrekt einfach als "Luftdruck" bezeichnet. Eigentlich nur eine fiktive Größe, die es erlaubt, Stationen auf unterschiedlichen Höhen miteinander zu vergleichen.

Station: Realer Luftdruck an der Station.